createdAt,value
2018-10-06T13:24:43.544Z,18.10
2018-10-06T13:27:14.097Z,24.00
2018-10-06T13:29:44.794Z,24.10
2018-10-06T13:32:14.634Z,24.30
2018-10-06T13:34:46.291Z,24.50
2018-10-06T13:37:16.189Z,24.40
2018-10-06T13:39:46.268Z,24.30
2018-10-06T13:42:16.288Z,24.10
2018-10-06T13:44:46.269Z,24.10
2018-10-06T13:47:16.281Z,24.00
2018-10-06T13:49:46.324Z,24.00
2018-10-06T13:52:16.420Z,23.80
2018-10-06T13:54:46.509Z,23.60
2018-10-06T13:57:16.508Z,23.50
2018-10-06T13:59:46.417Z,23.20
2018-10-06T14:02:16.605Z,22.70
2018-10-06T14:04:47.041Z,22.50
2018-10-06T14:07:18.364Z,22.40
2018-10-06T14:09:48.310Z,22.20
2018-10-06T14:12:18.613Z,22.30
2018-10-06T14:14:48.808Z,22.90
2018-10-06T14:17:18.987Z,23.70
2018-10-06T14:19:49.118Z,24.30
2018-10-06T14:22:19.805Z,24.80
2018-10-06T14:24:49.746Z,24.70
2018-10-06T16:09:40.797Z,25.00
2018-10-06T16:12:11.120Z,19.10
2018-10-06T16:14:40.993Z,19.00
2018-10-06T16:17:11.222Z,18.90
2018-10-06T16:19:42.602Z,18.80
2018-10-06T21:23:19.620Z,18.70
2018-10-06T21:30:49.151Z,16.20
2018-10-06T21:33:19.260Z,16.10
2018-10-06T21:35:49.109Z,16.10
2018-10-06T21:38:19.623Z,16.00
2018-10-06T21:40:49.491Z,16.00
2018-10-06T21:43:19.612Z,16.10
2018-10-06T21:45:49.562Z,16.00
2018-10-06T21:48:19.367Z,16.00
2018-10-06T21:50:50.199Z,16.00
2018-10-06T21:53:20.126Z,15.90
2018-10-06T21:55:50.054Z,15.90
2018-10-06T21:58:20.087Z,15.90
2018-10-06T22:00:54.150Z,15.90
2018-10-06T22:03:24.083Z,15.80
2018-10-06T22:05:53.818Z,15.70
2018-10-06T22:08:23.974Z,15.70
2018-10-06T22:10:53.897Z,15.60
2018-10-06T22:13:23.787Z,15.50
2018-10-06T22:15:53.644Z,15.50
2018-10-06T22:18:23.771Z,15.50
2018-10-06T22:20:53.616Z,15.50
2018-10-06T22:23:23.559Z,15.40
2018-10-06T22:25:53.420Z,15.40
2018-10-06T22:28:23.121Z,15.50
2018-10-06T22:30:52.864Z,15.40
2018-10-06T22:33:22.555Z,15.30
2018-10-06T22:35:52.260Z,15.30
2018-10-06T22:38:21.960Z,15.30
2018-10-06T22:40:51.625Z,15.30
2018-10-06T22:43:21.706Z,15.20
2018-10-06T22:45:51.459Z,15.20
2018-10-06T22:48:21.148Z,15.20
2018-10-06T22:50:50.824Z,15.20
2018-10-06T22:53:20.541Z,15.20
2018-10-06T22:55:50.208Z,15.20
2018-10-06T22:58:20.157Z,15.10
2018-10-06T23:00:49.828Z,15.10
2018-10-06T23:03:19.571Z,15.20
2018-10-06T23:05:49.270Z,15.20
2018-10-06T23:08:18.979Z,15.10
2018-10-06T23:10:48.796Z,15.10
2018-10-06T23:13:18.492Z,15.10
2018-10-06T23:15:48.179Z,15.00
2018-10-06T23:18:17.892Z,15.10
2018-10-06T23:20:47.641Z,15.10
2018-10-06T23:23:20.252Z,15.00
2018-10-06T23:25:50.187Z,15.00
2018-10-06T23:28:20.160Z,15.00
2018-10-06T23:30:50.097Z,15.00
2018-10-06T23:33:20.011Z,15.00
2018-10-06T23:35:49.881Z,15.00
2018-10-06T23:38:19.649Z,15.00
2018-10-06T23:40:49.353Z,15.00
2018-10-06T23:43:19.186Z,15.00
2018-10-06T23:45:48.900Z,15.00
2018-10-06T23:48:18.581Z,15.00
2018-10-06T23:50:48.333Z,15.00
2018-10-06T23:53:18.165Z,15.10
2018-10-06T23:55:48.666Z,15.10
2018-10-06T23:58:18.458Z,15.10
